Weather at Tuzla International Airport

Public forecast

Using degrees Celsius for public forecast. Weather courtesy of forecast.io.

Current aviation weather report (METAR) for Tuzla International Airport

2023/02/01 05:30 (retrieved 13 minutes ago)

LQTZ 010530Z VRB02KT 5000 BR NSC M02/M02 Q1020

Closest aviation forecast (TAF) to Tuzla International Airport

Forecast is more than 6 hours old.

Closest forecast is Osijek Airport, 60.4 nm (111.8 km) N.

2023/01/31 18:27 (retrieved 11 hours ago)

TAF LDOS 311725Z 3118/0118 29008KT 9999 SCT030 TX08/0113Z TNM01/0106Z PROB40 TEMPO 3118/0113 25005KT